Record high temperature 44.9°C Record low temperature -0.3°C Record high gust 87.3 km/h Record high average 77.7 km/h Record daily rain 484.8 mm Record low windchill -5.8°C Record high barometer 1043.6 hPa Record low barometer 978.0 hPa
Daily high pressure 1012.5 mb Daily low pressure 1010.4 mb Daily low windchill 18.0°C Daily high heat index 20.9°C Daily high gust speed 16.7 kmh WSW Daily high average speed 9.4 kmh NE
Estación de MeteoMurcia.com -------- Murcia-Puente Tocinos
Ultima grabación a: 09:50 Data: 27 May 2018, time of next update: 10:00
Tiempo actualmostly cloudy Temperatura actual20.9°C (69.6°F) (Indice de Calor20.9°C ), Temperatura aparente 22.0°C
Temperatura máxima (desde medianoche)20.9°C at: 09:47 Temperatura mínima (desde medianoche)18.0°C at: 07:17
Velocidad media del viento (diez minutos)3.7 kmh (2.0 kts) Dirección del viento (diez minutos)S (177°)
Indice de Calor20.9°C ráfagas maxima (última hora)10.4 kmh (5.6 kts) at: 09:19
ráfagas maxima (desde medianoche)16.7 kmh (9.0 kts) at: 07:13 Maximo media de un minuto (desde medianoche)9.4 kmh (5.1 kts) at: 00:25
Lluvia (última hora)0.0 mm Lluvia (desde medianoche)0.0 mm (0.00 in.)---
Lluvia Este mes 10.7 mm (0.42 in.) Lluvia Hasta la fecha este año114.0 mm (4.49 in.)
Lluvia máxima por minuto (última hora)0.0 mm/min Lluvia maxima por hora (últimas 6 horas)0.0 mm/hora
Lluvia de ayer 0.0 mm Punto de rocío 15.4°C (Wet Bulb :17.6°C )
Humedad 71 %, Humidex 25.2°C Barómetro corregido a msl1012.3 mb
cambio de presión+0.7 mb (última hora) Tendencia (últimas 1 hora)ELEVANDOSE SLOWLY
cambio de presión (últimas 12 horas)+1.9 mb cambio de presión (últimas 6 horas)+1.6 mb
Current Temp. Interna 27.5°C
Current Hum. Interna 47%


Última imagen cámara web


Weather report/warning/Metars

Alicante / El Altet, Spain (LEAL) 38-17N 000-33W 31M
May 27, 2018 - 03:00 AM EDT / 2018.05.27 0700 UTC
Wind: from the WSW (240 degrees) at 3 MPH (3 KT) (direction variable):0
Visibility: 5 mile(s):0
Sky conditions: mostly cloudy
Temperature: 66 F (19 C)
Dew Point: 62 F (17 C)
Relative Humidity: 88%
Pressure (altimeter): 29.91 in. Hg (1013 hPa)
ob: LEAL 270700Z 24003KT 190V290 9000 BKN020 19/17 Q1013 NOSIG
cycle: 7
Murcia / San Javier, Spain (LELC) 37-47N 000-48W 3M
May 27, 2018 - 03:00 AM EDT / 2018.05.27 0700 UTC
Wind: from the W (260 degrees) at 3 MPH (3 KT) (direction variable):0
Visibility: greater than 7 mile(s):0
Sky conditions: mostly clear
Temperature: 68 F (20 C)
Dew Point: 60 F (16 C)
Relative Humidity: 77%
Pressure (altimeter): 29.94 in. Hg (1014 hPa)
ob: LELC 270700Z 26003KT 170V330 9999 FEW018 20/16 Q1014 NOSIG
cycle: 7
Murcia / Alcantarilla, Spain (LERI) 37-57N 001-14W 75M
May 27, 2018 - 03:00 AM EDT / 2018.05.27 0700 UTC
Wind: Variable at 2 MPH (2 KT):0
Visibility: greater than 7 mile(s):0
Temperature: 66 F (19 C)
Dew Point: 57 F (14 C)
Relative Humidity: 72%
Pressure (altimeter): 29.91 in. Hg (1013 hPa)
ob: LERI 270700Z VRB02KT CAVOK 19/14 Q1013 NOSIG
cycle: 7
Gerona / Costa Brava, Spain (LEGE) 41-54N 002-46E 129M
May 27, 2018 - 03:30 AM EDT / 2018.05.27 0730 UTC
Wind: from the NNE (020 degrees) at 5 MPH (4 KT) (direction variable):0
Visibility: greater than 7 mile(s):0
Sky conditions: mostly clear
Temperature: 66 F (19 C)
Dew Point: 57 F (14 C)
Relative Humidity: 72%
Pressure (altimeter): 29.94 in. Hg (1014 hPa)
ob: LEGE 270730Z 02004KT 350V060 9999 FEW050 19/14 Q1014
cycle: 7
Madri-Colmenar, Spain (LECV) 40-39N 003-44W
May 27, 2018 - 03:00 AM EDT / 2018.05.27 0700 UTC
Wind: Calm:0
Visibility: greater than 7 mile(s):0
Sky conditions: mostly clear
Temperature: 64 F (18 C)
Dew Point: 50 F (10 C)
Relative Humidity: 59%
Pressure (altimeter): 30.00 in. Hg (1016 hPa)
ob: LECV 270700Z 00000KT 9999 FEW050 18/10 Q1016
cycle: 7
Asturias / Aviles, Spain (LEAS) 43-33N 006-02W 130M
May 27, 2018 - 03:00 AM EDT / 2018.05.27 0700 UTC
Wind: from the W (280 degrees) at 5 MPH (4 KT) (direction variable):0
Visibility: 2 mile(s):0
Sky conditions: mostly cloudy
Weather: mist
Temperature: 59 F (15 C)
Dew Point: 55 F (13 C)
Relative Humidity: 87%
Pressure (altimeter): 29.97 in. Hg (1015 hPa)
ob: LEAS 270700Z 28004KT 250V310 4000 BR FEW005 BKN018 15/13 Q1015 TEMPO 2000 BR BKN010
cycle: 7
Almeria / Aeropuerto, Spain (LEAM) 36-51N 002-23W 21M
May 27, 2018 - 03:30 AM EDT / 2018.05.27 0730 UTC
Wind: from the SW (230 degrees) at 3 MPH (3 KT) (direction variable):0
Visibility: greater than 7 mile(s):0
Sky conditions: mostly cloudy
Temperature: 66 F (19 C)
Dew Point: 60 F (16 C)
Relative Humidity: 82%
Pressure (altimeter): 29.94 in. Hg (1014 hPa)
ob: LEAM 270730Z 23003KT 170V270 9999 FEW010 BKN090 19/16 Q1014
cycle: 7
Pamplona / Noain, Spain (LEPP) 42-46N 001-38W 453M
May 27, 2018 - 03:30 AM EDT / 2018.05.27 0730 UTC
Wind: Calm:0
Visibility: 3 mile(s):0
Sky conditions: partly cloudy
Weather: mist
Temperature: 59 F (15 C)
Dew Point: 57 F (14 C)
Relative Humidity: 93%
Pressure (altimeter): 29.97 in. Hg (1015 hPa)
ob: LEPP 270730Z 00000KT 5000 BR SCT002 SCT025 15/14 Q1015
cycle: 7
Badajoz / Talavera La Real, Spain (LEBZ) 38-53N 006-49W 192M
May 27, 2018 - 03:00 AM EDT / 2018.05.27 0700 UTC
Wind: from the SSW (210 degrees) at 3 MPH (3 KT):0
Visibility: greater than 7 mile(s):0
Sky conditions: mostly clear
Temperature: 62 F (17 C)
Dew Point: 59 F (15 C)
Relative Humidity: 88%
Pressure (altimeter): 29.94 in. Hg (1014 hPa)
ob: LEBZ 270700Z 21003KT 9999 FEW040 17/15 Q1014
cycle: 7
Albacete / Los Llanos, Spain (LEAB) 38-57N 001-51W 704M
May 27, 2018 - 03:00 AM EDT / 2018.05.27 0700 UTC
Wind: Variable at 2 MPH (2 KT):0
Visibility: greater than 7 mile(s):0
Temperature: 57 F (14 C)
Dew Point: 51 F (11 C)
Relative Humidity: 82%
Pressure (altimeter): 29.97 in. Hg (1015 hPa)
ob: LEAB 270700Z VRB02KT CAVOK 14/11 Q1015 NOSIG
cycle: 7



La informacion se graba a intervalos de 2 minutos, pero hay info grabada cada minuto. Optimizado para 800*600 y Color verdadero. Use el boton de

Use the RECARGA en su navegador para recojer la ulima info.

Clicar aquí para regarga diaria de medias/extremas del mes














Created by "Weather Display" software version 10.37S at this start time/date 20:21:30 14/05/2018

La estación de MeteoMurcia.com, publica sus datos en los siguientes proyectos:

Meteoclimatic www.awekas.at

W3Counter
Web Analytics